createdAt,value
2018-11-20T00:00:03.327Z,12.25
2018-11-20T00:02:58.445Z,10.05
2018-11-20T00:05:58.184Z,11.10
2018-11-20T00:08:52.267Z,10.10
2018-11-20T00:11:39.934Z,11.70
2018-11-20T00:14:47.928Z,11.90
2018-11-20T00:17:47.143Z,12.33
2018-11-20T00:20:46.623Z,11.30
2018-11-20T00:23:28.447Z,12.15
2018-11-20T00:26:27.676Z,13.20
2018-11-20T00:29:23.450Z,12.18
2018-11-20T00:32:23.025Z,12.55
2018-11-20T00:38:26.939Z,14.15
2018-11-20T00:41:29.653Z,13.28
2018-11-20T00:44:29.441Z,12.75
2018-11-20T00:47:22.902Z,13.70
2018-11-20T00:50:27.964Z,14.90
2018-11-20T00:53:26.951Z,13.15
2018-11-20T00:56:14.802Z,13.55
2018-11-20T00:59:14.678Z,13.83
2018-11-20T01:02:14.373Z,12.90
2018-11-20T01:05:14.448Z,14.30
2018-11-20T01:08:14.155Z,12.70
2018-11-20T01:11:16.507Z,14.65
2018-11-20T01:14:15.240Z,14.18
2018-11-20T01:17:18.007Z,14.55
2018-11-20T01:20:08.947Z,13.70
2018-11-20T01:23:07.906Z,13.45
2018-11-20T01:26:07.501Z,15.63
2018-11-20T01:29:07.138Z,14.65
2018-11-20T01:32:05.982Z,15.28
2018-11-20T01:34:56.803Z,16.10
2018-11-20T01:37:56.160Z,15.05
2018-11-20T01:40:56.221Z,17.37
2018-11-20T01:43:55.778Z,15.80
2018-11-20T01:46:55.916Z,16.97
2018-11-20T01:49:58.718Z,15.32
2018-11-20T01:53:01.229Z,15.38
2018-11-20T01:56:00.489Z,16.35
2018-11-20T01:58:59.574Z,16.73
2018-11-20T02:01:58.517Z,16.37
2018-11-20T02:04:57.466Z,16.35
2018-11-20T02:07:57.066Z,14.87
2018-11-20T02:10:56.814Z,17.10
2018-11-20T02:14:01.808Z,14.98
2018-11-20T02:17:00.739Z,14.58
2018-11-20T02:20:00.052Z,13.98
2018-11-20T02:22:59.792Z,14.87
2018-11-20T02:25:59.947Z,15.20
2018-11-20T02:28:47.585Z,15.58
2018-11-20T02:31:54.442Z,15.00
2018-11-20T02:34:54.351Z,15.23
2018-11-20T02:37:54.341Z,15.18
2018-11-20T02:40:47.623Z,14.35
2018-11-20T02:43:33.388Z,13.93
2018-11-20T02:49:36.736Z,14.30
2018-11-20T02:52:41.798Z,17.52
2018-11-20T02:55:41.814Z,13.90
2018-11-20T02:58:30.213Z,15.78
2018-11-20T03:01:32.131Z,15.60
2018-11-20T03:07:29.969Z,15.25
2018-11-20T03:10:29.338Z,15.80
2018-11-20T03:13:28.190Z,15.83
2018-11-20T03:16:30.327Z,13.20
2018-11-20T03:19:21.531Z,15.10
2018-11-20T03:22:20.514Z,15.65
2018-11-20T03:28:22.532Z,15.50
2018-11-20T03:31:22.128Z,14.98
2018-11-20T03:34:21.639Z,15.50
2018-11-20T03:37:21.349Z,15.45
2018-11-20T03:40:21.083Z,15.65
2018-11-20T03:43:07.876Z,15.75
2018-11-20T03:46:07.531Z,14.50
2018-11-20T03:49:08.170Z,16.15
2018-11-20T03:51:55.084Z,14.63
2018-11-20T03:54:54.617Z,16.37
2018-11-20T03:57:54.252Z,15.95
2018-11-20T04:00:53.151Z,15.93
2018-11-20T04:03:47.838Z,15.13
2018-11-20T04:06:46.970Z,15.72
2018-11-20T04:09:45.911Z,15.80
2018-11-20T04:13:23.304Z,16.27
2018-11-20T04:16:26.168Z,17.05
2018-11-20T04:19:26.041Z,16.30
2018-11-20T04:22:25.641Z,14.05
2018-11-20T04:25:24.007Z,15.95
2018-11-20T04:28:11.049Z,17.17
2018-11-20T04:31:02.679Z,14.98
2018-11-20T04:34:08.855Z,14.78
2018-11-20T04:37:14.297Z,14.25
2018-11-20T04:40:17.203Z,14.70
2018-11-20T04:43:19.862Z,14.55
2018-11-20T04:46:19.107Z,15.53
2018-11-20T04:49:18.678Z,15.05
2018-11-20T04:52:18.443Z,14.87
2018-11-20T04:55:18.290Z,15.15
2018-11-20T04:58:17.646Z,14.20
2018-11-20T05:01:16.769Z,15.25
2018-11-20T05:04:16.522Z,15.75
2018-11-20T05:07:16.243Z,15.23
2018-11-20T05:10:16.143Z,15.70
2018-11-20T05:13:13.072Z,14.10
2018-11-20T05:16:10.375Z,15.32
2018-11-20T05:19:10.075Z,15.38
2018-11-20T05:22:10.076Z,15.40
2018-11-20T05:25:09.708Z,16.42
2018-11-20T05:27:58.579Z,17.00
2018-11-20T05:30:57.815Z,15.45
2018-11-20T05:34:00.576Z,16.12
2018-11-20T05:37:00.271Z,15.80
2018-11-20T05:40:00.200Z,16.30
2018-11-20T05:42:47.163Z,14.45
2018-11-20T05:45:53.367Z,17.02
2018-11-20T05:48:52.822Z,16.17
2018-11-20T05:51:52.512Z,16.30
2018-11-20T05:54:52.371Z,16.90
2018-11-20T05:57:55.244Z,16.48
2018-11-20T06:00:55.023Z,16.60
2018-11-20T06:03:54.750Z,14.98
2018-11-20T06:06:57.862Z,16.50
2018-11-20T06:09:46.469Z,15.75
2018-11-20T06:12:50.252Z,14.80
2018-11-20T06:15:55.520Z,15.95
2018-11-20T06:18:49.729Z,14.30
2018-11-20T06:21:48.728Z,15.38
2018-11-20T06:24:47.590Z,16.45
2018-11-20T06:27:46.865Z,15.68
2018-11-20T06:30:46.977Z,15.90
2018-11-20T06:33:49.943Z,15.68
2018-11-20T06:36:51.724Z,16.57
2018-11-20T06:39:50.675Z,15.68
2018-11-20T06:42:52.636Z,15.23
2018-11-20T06:45:41.604Z,16.80
2018-11-20T06:48:41.315Z,16.17
2018-11-20T06:51:29.885Z,18.00
2018-11-20T06:54:29.069Z,15.20
2018-11-20T06:57:28.288Z,16.75
2018-11-20T07:00:27.752Z,16.37
2018-11-20T07:03:26.578Z,16.50
2018-11-20T07:06:20.191Z,16.10
2018-11-20T07:09:22.180Z,15.75
2018-11-20T07:12:21.229Z,17.07
2018-11-20T07:15:20.225Z,17.90
2018-11-20T07:18:19.178Z,17.75
2018-11-20T07:21:11.971Z,18.42
2018-11-20T07:24:11.446Z,17.70
2018-11-20T07:27:14.062Z,18.73
2018-11-20T07:30:13.970Z,19.37
2018-11-20T07:33:05.696Z,18.00
2018-11-20T07:36:08.046Z,17.32
2018-11-20T07:39:10.371Z,18.12
2018-11-20T07:41:59.710Z,18.05
2018-11-20T07:44:58.719Z,17.65
2018-11-20T07:47:58.372Z,19.00
2018-11-20T07:51:00.702Z,17.87
2018-11-20T07:53:47.230Z,17.67
2018-11-20T07:56:53.358Z,18.30
2018-11-20T07:59:46.691Z,18.77
2018-11-20T08:02:45.910Z,18.12
2018-11-20T08:05:45.483Z,18.62
2018-11-20T08:08:45.234Z,18.12
2018-11-20T08:11:38.915Z,18.65
2018-11-20T08:14:38.218Z,17.60
2018-11-20T08:17:37.274Z,18.30
2018-11-20T08:20:37.123Z,17.85
2018-11-20T08:23:42.550Z,18.23
2018-11-20T08:26:38.080Z,15.88
2018-11-20T08:29:37.088Z,17.37
2018-11-20T08:32:36.007Z,18.05
2018-11-20T08:35:35.861Z,17.30
2018-11-20T08:38:29.145Z,20.15
2018-11-20T08:41:20.041Z,17.25
2018-11-20T08:44:19.391Z,18.15
2018-11-20T08:47:21.717Z,17.90
2018-11-20T08:50:09.697Z,18.40
2018-11-20T08:53:16.022Z,19.02
2018-11-20T08:56:13.714Z,18.42
2018-11-20T08:59:03.929Z,17.02
2018-11-20T09:02:03.844Z,18.02
2018-11-20T09:05:03.232Z,18.75
2018-11-20T09:08:02.083Z,18.85
2018-11-20T09:10:45.108Z,18.45
2018-11-20T09:13:44.532Z,19.12
2018-11-20T09:16:44.231Z,18.98
2018-11-20T09:19:36.505Z,19.55
2018-11-20T09:22:31.699Z,18.82
2018-11-20T09:25:31.472Z,17.65
2018-11-20T09:28:31.097Z,18.82
2018-11-20T09:31:30.041Z,19.02
2018-11-20T09:34:32.122Z,19.17
2018-11-20T09:37:32.003Z,18.67
2018-11-20T09:40:27.195Z,17.37
2018-11-20T09:43:27.053Z,18.32
2018-11-20T09:46:31.505Z,17.32
2018-11-20T09:49:31.319Z,17.80
2018-11-20T09:52:39.788Z,18.62
2018-11-20T09:55:45.949Z,17.10
2018-11-20T09:58:44.990Z,17.50
2018-11-20T10:01:44.112Z,18.27
2018-11-20T10:07:24.058Z,17.87
2018-11-20T10:13:29.089Z,17.50
2018-11-20T10:16:30.144Z,18.60
2018-11-20T10:19:29.750Z,19.50
2018-11-20T10:22:32.278Z,17.32
2018-11-20T10:25:35.033Z,16.93
2018-11-20T10:28:31.326Z,17.52
2018-11-20T10:31:30.637Z,18.98
2018-11-20T10:34:29.629Z,16.73
2018-11-20T10:37:29.222Z,18.62
2018-11-20T10:40:28.779Z,16.55
2018-11-20T10:43:19.387Z,18.73
2018-11-20T10:46:19.136Z,20.00
2018-11-20T10:49:18.852Z,19.30
2018-11-20T10:52:17.921Z,17.98
2018-11-20T10:55:17.946Z,18.20
2018-11-20T10:58:24.105Z,18.85
2018-11-20T11:01:23.549Z,17.87
2018-11-20T11:04:23.276Z,17.50
2018-11-20T11:07:22.971Z,19.05
2018-11-20T11:10:17.164Z,17.30
2018-11-20T11:16:30.565Z,19.57
2018-11-20T11:19:33.978Z,18.85
2018-11-20T11:22:33.301Z,18.55
2018-11-20T11:25:32.348Z,19.40
2018-11-20T11:28:22.893Z,19.25
2018-11-20T11:31:22.675Z,18.77
2018-11-20T11:34:09.559Z,18.55
2018-11-20T11:37:19.008Z,17.23
2018-11-20T11:40:08.417Z,17.92
2018-11-20T11:43:13.720Z,18.80
2018-11-20T11:46:08.586Z,17.92
2018-11-20T11:49:07.503Z,18.95
2018-11-20T11:52:07.310Z,18.35
2018-11-20T11:58:31.602Z,19.48
2018-11-20T12:01:18.246Z,18.55
2018-11-20T12:04:26.438Z,20.48
2018-11-20T12:07:25.823Z,18.70
2018-11-20T12:10:25.673Z,20.43
2018-11-20T12:13:25.619Z,19.40
2018-11-20T12:16:16.860Z,19.90
2018-11-20T12:19:23.152Z,19.45
2018-11-20T12:22:29.404Z,20.55
2018-11-20T12:25:35.868Z,20.23
2018-11-20T12:28:22.487Z,20.68
2018-11-20T12:31:12.551Z,18.57
2018-11-20T12:34:02.347Z,20.08
2018-11-20T12:37:11.072Z,19.30
2018-11-20T12:40:11.485Z,19.02
2018-11-20T12:43:04.153Z,18.92
2018-11-20T12:46:04.140Z,20.17
2018-11-20T12:49:03.047Z,21.37
2018-11-20T12:52:08.812Z,18.95
2018-11-20T12:54:58.331Z,19.35
2018-11-20T12:58:04.774Z,20.05
2018-11-20T13:01:10.213Z,20.95
2018-11-20T13:06:44.204Z,21.48
2018-11-20T13:09:33.188Z,22.00
2018-11-20T13:12:39.378Z,22.37
2018-11-20T13:15:25.414Z,21.02
2018-11-20T13:18:24.561Z,20.92
2018-11-20T13:21:24.486Z,19.85
2018-11-20T13:24:11.964Z,22.52
2018-11-20T13:27:17.556Z,21.25
2018-11-20T13:30:16.894Z,20.35
2018-11-20T13:33:17.876Z,22.73
2018-11-20T13:36:11.591Z,20.85
2018-11-20T13:39:11.838Z,21.75
2018-11-20T13:42:03.012Z,21.48
2018-11-20T13:48:07.793Z,21.07
2018-11-20T13:54:29.692Z,21.10
2018-11-20T14:00:15.565Z,20.72
2018-11-20T14:03:14.581Z,21.45
2018-11-20T14:06:07.317Z,19.65
2018-11-20T14:09:08.000Z,18.40
2018-11-20T14:12:02.259Z,20.23
2018-11-20T14:14:49.671Z,20.88
2018-11-20T14:17:49.395Z,19.30
2018-11-20T14:20:47.267Z,17.50
2018-11-20T14:23:37.887Z,17.87
2018-11-20T14:26:49.387Z,17.50
2018-11-20T14:29:48.895Z,16.93
2018-11-20T14:32:48.771Z,17.35
2018-11-20T14:35:48.628Z,15.72
2018-11-20T14:38:56.626Z,15.35
2018-11-20T14:41:54.305Z,17.60
2018-11-20T14:44:53.306Z,15.95
2018-11-20T14:47:41.000Z,15.23
2018-11-20T14:50:40.324Z,16.80
2018-11-20T14:53:45.951Z,15.23
2018-11-20T14:56:44.846Z,16.20
2018-11-20T14:59:44.408Z,14.60
2018-11-20T15:02:44.131Z,15.32
2018-11-20T15:05:41.070Z,14.45
2018-11-20T15:08:40.070Z,13.80
2018-11-20T15:11:17.450Z,16.12
2018-11-20T15:14:23.894Z,16.70
2018-11-20T15:17:23.727Z,14.70
2018-11-20T15:20:23.406Z,15.58
2018-11-20T15:23:29.301Z,14.43
2018-11-20T15:26:21.370Z,14.40
2018-11-20T15:29:21.060Z,16.62
2018-11-20T15:32:24.051Z,16.95
2018-11-20T15:35:01.223Z,17.12
2018-11-20T15:38:07.410Z,17.52
2018-11-20T15:41:00.518Z,20.75
2018-11-20T15:44:00.985Z,19.10
2018-11-20T15:46:42.042Z,19.35
2018-11-20T15:49:37.453Z,17.95
2018-11-20T15:52:36.440Z,18.87
2018-11-20T15:55:39.160Z,20.12
2018-11-20T15:58:38.962Z,19.52
2018-11-20T16:01:38.690Z,19.95
2018-11-20T16:04:38.416Z,19.60
2018-11-20T16:07:38.222Z,18.82
2018-11-20T16:10:38.006Z,21.65
2018-11-20T16:13:37.194Z,20.20
2018-11-20T16:16:42.676Z,21.42
2018-11-20T16:19:43.929Z,22.07
2018-11-20T16:22:43.605Z,20.90
2018-11-20T16:25:43.658Z,19.32
2018-11-20T16:28:43.279Z,21.52
2018-11-20T16:31:42.251Z,18.50
2018-11-20T16:34:41.233Z,22.73
2018-11-20T16:37:43.868Z,22.22
2018-11-20T16:40:30.772Z,19.90
2018-11-20T16:43:29.984Z,20.70
2018-11-20T16:46:29.897Z,19.00
2018-11-20T16:49:25.453Z,20.80
2018-11-20T16:52:24.352Z,20.77
2018-11-20T16:55:23.139Z,21.65
2018-11-20T16:58:22.618Z,23.20
2018-11-20T17:01:22.414Z,22.62
2018-11-20T17:04:21.400Z,25.92
2018-11-20T17:07:20.418Z,24.12
2018-11-20T17:10:20.159Z,20.95
2018-11-20T17:13:25.315Z,22.95
2018-11-20T17:16:23.696Z,22.80
2018-11-20T17:19:22.736Z,20.35
2018-11-20T17:22:22.488Z,22.37
2018-11-20T17:25:14.291Z,22.22
2018-11-20T17:28:00.971Z,21.68
2018-11-20T17:31:07.351Z,21.50
2018-11-20T17:34:02.969Z,21.02
2018-11-20T17:36:51.575Z,22.55
2018-11-20T17:39:50.639Z,20.80
2018-11-20T17:42:55.545Z,21.02
2018-11-20T17:45:55.243Z,21.40
2018-11-20T17:52:10.186Z,20.30
2018-11-20T17:55:01.742Z,21.65
2018-11-20T17:57:57.119Z,20.90
2018-11-20T18:00:57.896Z,18.80
2018-11-20T18:03:57.132Z,20.62
2018-11-20T18:06:56.648Z,21.02
2018-11-20T18:09:56.236Z,19.42
2018-11-20T18:12:56.060Z,19.37
2018-11-20T18:15:55.804Z,20.50
2018-11-20T18:18:54.907Z,20.75
2018-11-20T18:21:54.632Z,20.25
2018-11-20T18:24:34.926Z,20.35
2018-11-20T18:27:25.181Z,18.77
2018-11-20T18:30:30.416Z,19.98
2018-11-20T18:33:30.312Z,20.80
2018-11-20T18:36:35.933Z,20.08
2018-11-20T18:39:35.699Z,18.60
2018-11-20T18:42:25.221Z,18.42
2018-11-20T18:45:30.215Z,19.67
2018-11-20T18:48:33.088Z,19.57
2018-11-20T18:51:23.863Z,19.60
2018-11-20T18:54:13.211Z,19.85
2018-11-20T18:57:19.368Z,18.40
2018-11-20T19:00:19.093Z,17.85
2018-11-20T19:03:08.505Z,17.50
2018-11-20T19:06:15.315Z,19.37
2018-11-20T19:09:15.252Z,18.90
2018-11-20T19:12:20.671Z,18.07
2018-11-20T19:15:20.405Z,20.20
2018-11-20T19:18:19.512Z,19.90
2018-11-20T19:21:19.223Z,21.00
2018-11-20T19:24:25.313Z,19.42
2018-11-20T19:27:25.028Z,18.98
2018-11-20T19:30:24.711Z,18.92
2018-11-20T19:33:20.286Z,20.48
2018-11-20T19:36:14.597Z,19.57
2018-11-20T19:39:13.731Z,19.92
2018-11-20T19:42:13.525Z,20.10
2018-11-20T19:45:12.610Z,20.45
2018-11-20T19:48:12.351Z,20.90
2018-11-20T19:51:12.055Z,20.75
2018-11-20T19:54:12.089Z,20.57
2018-11-20T19:57:11.385Z,19.77
2018-11-20T20:00:10.420Z,19.50
2018-11-20T20:03:10.128Z,20.12
2018-11-20T20:06:08.613Z,19.75
2018-11-20T20:09:07.940Z,21.10
2018-11-20T20:12:07.404Z,19.60
2018-11-20T20:15:02.548Z,19.92
2018-11-20T20:18:02.244Z,20.65
2018-11-20T20:20:58.032Z,21.50
2018-11-20T20:24:03.539Z,21.95
2018-11-20T20:27:01.132Z,20.45
2018-11-20T20:30:00.829Z,21.30
2018-11-20T20:33:00.542Z,22.10
2018-11-20T20:36:03.309Z,21.15
2018-11-20T20:38:52.053Z,22.52
2018-11-20T20:41:46.027Z,21.05
2018-11-20T20:44:45.201Z,22.15
2018-11-20T20:47:44.171Z,21.70
2018-11-20T20:50:30.852Z,22.10
2018-11-20T20:53:37.214Z,21.82
2018-11-20T20:56:17.394Z,23.85
2018-11-20T20:59:18.492Z,21.82
2018-11-20T21:02:18.196Z,20.80
2018-11-20T21:05:20.995Z,21.40
2018-11-20T21:08:20.161Z,24.95
2018-11-20T21:11:20.091Z,22.67
2018-11-20T21:14:25.463Z,25.32
2018-11-20T21:17:24.525Z,23.90
2018-11-20T21:20:23.833Z,24.67
2018-11-20T21:23:22.998Z,23.85
2018-11-20T21:26:16.786Z,23.90
2018-11-20T21:29:15.874Z,24.65
2018-11-20T21:32:15.148Z,23.95
2018-11-20T21:35:17.833Z,22.85
2018-11-20T21:38:11.941Z,23.07
2018-11-20T21:41:10.959Z,23.87
2018-11-20T21:44:04.014Z,24.63
2018-11-20T21:47:03.056Z,24.57
2018-11-20T21:50:02.801Z,25.88
2018-11-20T21:53:02.695Z,25.52
2018-11-20T21:56:02.037Z,24.50
2018-11-20T21:58:49.139Z,24.10
2018-11-20T22:01:39.818Z,24.27
2018-11-20T22:04:39.709Z,24.92
2018-11-20T22:07:39.497Z,24.12
2018-11-20T22:10:26.070Z,25.40
2018-11-20T22:13:32.479Z,24.32
2018-11-20T22:16:32.060Z,24.45
2018-11-20T22:19:31.825Z,24.50
2018-11-20T22:22:34.454Z,23.70
2018-11-20T22:25:39.515Z,24.70
2018-11-20T22:28:38.513Z,23.65
2018-11-20T22:31:44.096Z,26.33
2018-11-20T22:34:51.335Z,23.87
2018-11-20T22:37:57.723Z,24.87
2018-11-20T22:41:03.111Z,26.15
2018-11-20T22:44:02.370Z,23.52
2018-11-20T22:47:01.843Z,23.85
2018-11-20T22:50:01.324Z,23.60
2018-11-20T22:52:50.501Z,22.80
2018-11-20T22:55:55.983Z,24.95
2018-11-20T22:58:47.128Z,23.67
2018-11-20T23:01:41.867Z,23.18
2018-11-20T23:04:43.835Z,25.23
2018-11-20T23:07:32.647Z,22.80
2018-11-20T23:10:20.158Z,24.27
2018-11-20T23:13:00.201Z,23.83
2018-11-20T23:15:40.008Z,24.15
2018-11-20T23:18:20.617Z,24.32
2018-11-20T23:21:00.195Z,24.32
2018-11-20T23:23:39.795Z,24.82
2018-11-20T23:26:19.516Z,26.35
2018-11-20T23:28:59.250Z,24.40
2018-11-20T23:31:39.016Z,24.70
2018-11-20T23:34:18.807Z,23.83
2018-11-20T23:36:58.621Z,24.60
2018-11-20T23:39:38.604Z,23.73
2018-11-20T23:42:23.684Z,22.02
2018-11-20T23:44:58.154Z,22.30
2018-11-20T23:47:37.829Z,25.60
2018-11-20T23:50:17.365Z,24.65
2018-11-20T23:52:57.031Z,24.15
2018-11-20T23:55:36.474Z,24.57
2018-11-20T23:58:16.398Z,26.05
